Terminal Aerodrome Forecast
Issued by NWS Portland, OR

Home | Current Version | Previous Version | Text Only | Print | Product List | Glossary On
Versions: 1 2 3 4 5 6 7 8 9 10 11 12 13 14 15 16 17 18
000
FTUS46 KPQR 290520
TAFEUG
TAF
KEUG 290520Z 2906/3006 18006KT P6SM OVC080
     FM290800 17008KT P6SM -RA OVC050
     FM291200 18012KT 6SM -RA BR BKN025 OVC040
     FM291500 18013G21KT 5SM -RA BR BKN015 OVC030
     FM292200 19011KT P6SM -SHRA SCT015 OVC028
     FM300400 23009KT P6SM -SHRA SCT020 OVC035=

USA.gov is the U.S. government's official web portal to all federal, state and local government web resources and services.